Wetterdaten: Woche 04.04.16 - 10.04.16 (KW14)
Datum Zeit Temp. A. Feuchte A. Luftdruck Regen Wind Richtung Taupunkt Windchill Windben
04.04.2016 00:00 9,5 C 78 % 1009,8 hPa 0,0 l/m 0,0 km/h N 5,8 C 9,5 C 0,0 km/h
04.04.2016 01:00 8,6 C 80 % 1009,5 hPa 0,0 l/m 0,0 km/h N 5,3 C 8,6 C 0,0 km/h
04.04.2016 02:00 8,2 C 82 % 1009,0 hPa 0,0 l/m 0,0 km/h N 5,2 C 8,2 C 0,4 km/h
04.04.2016 03:00 7,6 C 82 % 1008,7 hPa 0,0 l/m 0,0 km/h N 4,7 C 7,6 C 0,0 km/h
04.04.2016 04:00 6,9 C 83 % 1008,4 hPa 0,0 l/m 0,0 km/h N 4,1 C 6,9 C 0,4 km/h
04.04.2016 05:00 6,2 C 83 % 1008,2 hPa 0,0 l/m 0,0 km/h N 3,5 C 6,2 C 0,0 km/h
04.04.2016 06:00 6,2 C 83 % 1008,1 hPa 0,0 l/m 0,1 km/h N 3,5 C 6,2 C 1,6 km/h
04.04.2016 07:00 6,8 C 82 % 1008,2 hPa 0,0 l/m 0,0 km/h N 3,9 C 6,8 C 1,2 km/h
04.04.2016 08:00 9,3 C 82 % 1008,3 hPa 0,0 l/m 0,9 km/h N 6,3 C 9,3 C 5,6 km/h
04.04.2016 09:00 13,8 C 70 % 1008,2 hPa 0,0 l/m 1,7 km/h N 8,4 C 13,8 C 7,6 km/h
04.04.2016 10:00 16,4 C 61 % 1008,3 hPa 0,0 l/m 0,9 km/h N 8,9 C 16,4 C 8,0 km/h
04.04.2016 11:00 18,6 C 56 % 1008,1 hPa 0,0 l/m 0,5 km/h N 9,6 C 18,6 C 6,4 km/h
04.04.2016 12:00 19,8 C 51 % 1007,8 hPa 0,0 l/m 0,6 km/h N 9,4 C 19,8 C 5,6 km/h
04.04.2016 13:00 20,5 C 50 % 1007,4 hPa 0,0 l/m 0,6 km/h N 9,7 C 20,5 C 5,6 km/h
04.04.2016 14:00 21,7 C 47 % 1007,0 hPa 0,0 l/m 0,5 km/h N 9,7 C 21,7 C 5,6 km/h
04.04.2016 15:00 22,7 C 43 % 1006,6 hPa 0,0 l/m 0,1 km/h N 9,5 C 22,7 C 3,2 km/h
04.04.2016 16:00 22,8 C 43 % 1006,2 hPa 0,0 l/m 0,2 km/h N 9,5 C 22,8 C 2,8 km/h
04.04.2016 17:00 22,7 C 43 % 1005,9 hPa 0,0 l/m 0,2 km/h N 9,5 C 22,7 C 2,4 km/h
04.04.2016 18:00 22,6 C 42 % 1005,9 hPa 0,0 l/m 0,0 km/h N 9,1 C 22,6 C 0,4 km/h
04.04.2016 19:00 20,4 C 48 % 1006,0 hPa 0,0 l/m 0,0 km/h N 9,1 C 20,4 C 0,0 km/h
04.04.2016 20:00 17,1 C 57 % 1006,6 hPa 0,0 l/m 0,0 km/h N 8,5 C 17,1 C 0,4 km/h
04.04.2016 21:00 14,4 C 66 % 1006,8 hPa 0,0 l/m 0,0 km/h N 8,1 C 14,4 C 0,0 km/h
04.04.2016 22:00 12,8 C 70 % 1006,7 hPa 0,0 l/m 0,0 km/h N 7,4 C 12,8 C 0,4 km/h
04.04.2016 23:00 11,8 C 73 % 1006,4 hPa 0,0 l/m 0,0 km/h N 7,0 C 11,8 C 0,0 km/h
05.04.2016 00:00 11,1 C 75 % 1006,4 hPa 0,0 l/m 0,0 km/h N 6,8 C 11,1 C 0,4 km/h
05.04.2016 01:00 10,0 C 78 % 1006,0 hPa 0,0 l/m 0,0 km/h N 6,2 C 10,0 C 0,4 km/h
05.04.2016 02:00 9,3 C 79 % 1005,7 hPa 0,0 l/m 0,0 km/h N 5,8 C 9,3 C 0,0 km/h
05.04.2016 03:00 8,3 C 80 % 1005,3 hPa 0,0 l/m 0,0 km/h N 5,0 C 8,3 C 0,0 km/h
05.04.2016 04:00 7,2 C 81 % 1005,2 hPa 0,0 l/m 0,0 km/h N 4,1 C 7,2 C 0,0 km/h
05.04.2016 05:00 6,5 C 82 % 1005,1 hPa 0,0 l/m 0,0 km/h N 3,7 C 6,5 C 0,0 km/h
05.04.2016 06:00 6,2 C 83 % 1005,0 hPa 0,0 l/m 0,0 km/h N 3,5 C 6,2 C 0,0 km/h
05.04.2016 07:00 6,9 C 82 % 1005,8 hPa 0,0 l/m 0,0 km/h N 4,1 C 6,9 C 0,4 km/h
05.04.2016 08:00 10,2 C 81 % 1005,8 hPa 0,0 l/m 0,0 km/h N 7,1 C 10,2 C 0,8 km/h
05.04.2016 09:00 14,1 C 75 % 1005,9 hPa 0,0 l/m 0,8 km/h N 9,7 C 14,1 C 6,4 km/h
05.04.2016 10:00 16,4 C 62 % 1006,1 hPa 0,0 l/m 1,3 km/h N 9,2 C 16,4 C 8,0 km/h
05.04.2016 11:00 18,5 C 59 % 1006,3 hPa 0,0 l/m 1,3 km/h N 10,3 C 18,5 C 7,6 km/h
05.04.2016 12:00 20,5 C 54 % 1006,0 hPa 0,0 l/m 0,5 km/h N 10,9 C 20,5 C 5,6 km/h
05.04.2016 13:00 21,8 C 52 % 1005,7 hPa 0,0 l/m 0,3 km/h N 11,4 C 21,8 C 4,8 km/h
05.04.2016 14:00 22,4 C 48 % 1005,3 hPa 0,0 l/m 0,5 km/h N 10,9 C 22,4 C 5,6 km/h
05.04.2016 15:00 23,3 C 48 % 1005,1 hPa 0,0 l/m 0,3 km/h N 11,5 C 23,3 C 4,0 km/h
05.04.2016 16:00 23,7 C 46 % 1005,1 hPa 0,0 l/m 0,1 km/h N 11,5 C 23,7 C 2,8 km/h
05.04.2016 17:00 23,5 C 47 % 1005,2 hPa 0,0 l/m 0,1 km/h N 11,4 C 23,5 C 2,0 km/h
05.04.2016 18:00 23,3 C 46 % 1005,2 hPa 0,0 l/m 0,0 km/h N 11,1 C 23,3 C 0,4 km/h
05.04.2016 19:00 21,2 C 52 % 1005,5 hPa 0,0 l/m 0,0 km/h N 10,8 C 21,2 C 0,0 km/h
05.04.2016 20:00 18,0 C 60 % 1006,0 hPa 0,0 l/m 0,0 km/h N 10,1 C 18,0 C 0,0 km/h
05.04.2016 21:00 15,8 C 68 % 1006,1 hPa 0,0 l/m 0,0 km/h N 9,9 C 15,8 C 0,0 km/h
05.04.2016 22:00 14,8 C 71 % 1006,0 hPa 0,0 l/m 0,0 km/h N 9,6 C 14,8 C 0,4 km/h
05.04.2016 23:00 13,8 C 74 % 1005,9 hPa 0,0 l/m 0,0 km/h N 9,3 C 13,8 C 0,0 km/h
06.04.2016 00:00 13,0 C 75 % 1005,7 hPa 0,0 l/m 0,0 km/h N 8,6 C 13,0 C 0,0 km/h
06.04.2016 01:00 12,5 C 78 % 1005,4 hPa 0,0 l/m 0,0 km/h N 8,7 C 12,5 C 1,6 km/h
06.04.2016 02:00 11,4 C 79 % 1005,3 hPa 0,0 l/m 0,2 km/h N 7,9 C 11,4 C 1,6 km/h
06.04.2016 03:00 13,2 C 78 % 1005,7 hPa 0,0 l/m 2,9 km/h N 9,4 C 13,2 C 10,1 km/h
06.04.2016 04:00 16,5 C 69 % 1005,8 hPa 0,0 l/m 7,5 km/h N 10,7 C 15,6 C 24,5 km/h
06.04.2016 05:00 16,0 C 67 % 1006,3 hPa 0,0 l/m 12,2 km/h N 9,9 C 13,4 C 34,6 km/h
06.04.2016 06:00 15,2 C 69 % 1007,5 hPa 0,0 l/m 11,3 km/h N 9,5 C 12,8 C 31,8 km/h
06.04.2016 07:00 14,6 C 71 % 1009,3 hPa 0,0 l/m 8,8 km/h N 9,3 C 13,3 C 25,4 km/h
06.04.2016 08:00 15,1 C 70 % 1010,3 hPa 0,0 l/m 11,0 km/h N 9,5 C 12,8 C 26,1 km/h
06.04.2016 09:00 15,9 C 68 % 1011,0 hPa 0,0 l/m 12,7 km/h N 10,0 C 13,1 C 27,3 km/h
06.04.2016 10:00 16,5 C 65 % 1011,5 hPa 0,0 l/m 13,4 km/h N 9,9 C 13,5 C 28,6 km/h
06.04.2016 11:00 16,8 C 63 % 1011,8 hPa 0,0 l/m 14,1 km/h N 9,8 C 13,7 C 28,2 km/h
06.04.2016 12:00 16,7 C 62 % 1012,0 hPa 0,0 l/m 16,4 km/h N 9,3 C 12,9 C 33,4 km/h
06.04.2016 13:00 16,6 C 62 % 1012,2 hPa 0,0 l/m 15,2 km/h N 9,1 C 13,1 C 31,0 km/h
06.04.2016 14:00 16,6 C 61 % 1012,1 hPa 0,0 l/m 13,5 km/h N 8,9 C 13,6 C 30,2 km/h
06.04.2016 15:00 17,5 C 57 % 1011,3 hPa 0,0 l/m 13,6 km/h N 8,9 C 14,6 C 29,0 km/h
06.04.2016 16:00 17,3 C 56 % 1011,0 hPa 0,0 l/m 12,5 km/h N 8,4 C 14,8 C 24,9 km/h
06.04.2016 17:00 16,7 C 57 % 1011,0 hPa 0,0 l/m 9,8 km/h N 8,1 C 15,1 C 22,1 km/h
06.04.2016 18:00 15,9 C 59 % 1011,1 hPa 0,0 l/m 9,9 km/h N 7,8 C 14,2 C 20,9 km/h
06.04.2016 19:00 15,2 C 61 % 1011,2 hPa 0,0 l/m 4,6 km/h N 7,6 C 15,2 C 14,9 km/h
06.04.2016 20:00 14,8 C 62 % 1011,3 hPa 0,0 l/m 2,0 km/h N 7,6 C 14,8 C 11,3 km/h
06.04.2016 21:00 14,6 C 61 % 1011,2 hPa 0,0 l/m 4,8 km/h N 7,2 C 14,6 C 14,5 km/h
06.04.2016 22:00 14,3 C 62 % 1011,0 hPa 0,0 l/m 7,0 km/h N 7,0 C 13,9 C 18,5 km/h
06.04.2016 23:00 14,1 C 63 % 1011,3 hPa 0,0 l/m 2,1 km/h N 7,2 C 14,1 C 8,9 km/h
07.04.2016 00:00 13,6 C 70 % 1011,5 hPa 0,3 l/m 0,6 km/h N 8,2 C 13,6 C 4,0 km/h
07.04.2016 01:00 12,4 C 77 % 1011,8 hPa 0,0 l/m 0,3 km/h N 8,5 C 12,4 C 2,4 km/h
07.04.2016 02:00 12,3 C 77 % 1011,6 hPa 0,0 l/m 0,3 km/h N 8,4 C 12,3 C 3,6 km/h
07.04.2016 03:00 12,5 C 76 % 1011,4 hPa 0,0 l/m 0,4 km/h N 8,4 C 12,5 C 6,0 km/h
07.04.2016 04:00 12,3 C 76 % 1011,2 hPa 0,0 l/m 0,0 km/h N 8,2 C 12,3 C 0,8 km/h
07.04.2016 05:00 11,9 C 78 % 1011,1 hPa 0,0 l/m 0,4 km/h N 8,1 C 11,9 C 3,6 km/h
07.04.2016 06:00 11,1 C 80 % 1011,2 hPa 0,0 l/m 0,0 km/h N 7,6 C 11,1 C 2,4 km/h
07.04.2016 07:00 10,4 C 81 % 1011,3 hPa 0,0 l/m 0,0 km/h N 7,3 C 10,4 C 0,4 km/h
07.04.2016 08:00 11,4 C 82 % 1011,5 hPa 0,0 l/m 0,0 km/h N 8,4 C 11,4 C 1,2 km/h
07.04.2016 09:00 13,9 C 76 % 1011,5 hPa 0,0 l/m 0,0 km/h N 9,7 C 13,9 C 1,6 km/h
07.04.2016 10:00 15,3 C 71 % 1011,4 hPa 0,0 l/m 0,1 km/h N 10,1 C 15,3 C 2,8 km/h
07.04.2016 11:00 16,1 C 65 % 1011,6 hPa 0,0 l/m 0,3 km/h N 9,4 C 16,1 C 4,0 km/h
07.04.2016 12:00 16,5 C 61 % 1011,4 hPa 0,0 l/m 0,4 km/h N 9,1 C 16,5 C 5,6 km/h
07.04.2016 13:00 17,6 C 56 % 1010,8 hPa 0,0 l/m 1,2 km/h N 8,8 C 17,6 C 7,2 km/h
07.04.2016 14:00 17,2 C 59 % 1010,2 hPa 0,0 l/m 4,9 km/h N 9,2 C 17,1 C 13,7 km/h
07.04.2016 15:00 16,9 C 59 % 1009,6 hPa 0,0 l/m 4,8 km/h N 8,7 C 16,9 C 13,7 km/h
07.04.2016 16:00 17,3 C 55 % 1009,0 hPa 0,0 l/m 2,8 km/h N 8,2 C 17,3 C 11,7 km/h
07.04.2016 17:00 17,2 C 55 % 1008,7 hPa 0,0 l/m 2,1 km/h N 8,2 C 17,2 C 9,7 km/h
07.04.2016 18:00 16,6 C 59 % 1008,8 hPa 0,0 l/m 2,5 km/h N 8,5 C 16,6 C 8,0 km/h
07.04.2016 19:00 15,4 C 60 % 1008,9 hPa 0,0 l/m 3,6 km/h N 7,6 C 15,4 C 12,5 km/h
07.04.2016 20:00 14,4 C 63 % 1009,5 hPa 0,0 l/m 1,4 km/h N 7,3 C 14,4 C 7,6 km/h
07.04.2016 21:00 13,6 C 66 % 1009,8 hPa 0,0 l/m 0,2 km/h N 7,4 C 13,6 C 3,6 km/h
07.04.2016 22:00 13,2 C 68 % 1009,8 hPa 0,0 l/m 0,7 km/h N 7,5 C 13,2 C 6,0 km/h
07.04.2016 23:00 13,0 C 72 % 1009,9 hPa 0,0 l/m 2,0 km/h N 8,0 C 13,0 C 8,9 km/h
08.04.2016 00:00 12,3 C 74 % 1009,6 hPa 0,0 l/m 5,9 km/h N 7,7 C 12,1 C 15,7 km/h
08.04.2016 01:00 11,6 C 76 % 1009,6 hPa 0,0 l/m 2,1 km/h N 7,5 C 11,6 C 8,4 km/h
08.04.2016 02:00 11,7 C 78 % 1009,4 hPa 0,0 l/m 6,1 km/h N 7,9 C 11,5 C 14,9 km/h
08.04.2016 03:00 11,6 C 79 % 1009,4 hPa 0,0 l/m 6,1 km/h N 8,1 C 11,4 C 16,5 km/h
08.04.2016 04:00 11,6 C 79 % 1009,0 hPa 0,0 l/m 6,5 km/h N 8,0 C 11,4 C 16,1 km/h
08.04.2016 05:00 11,3 C 78 % 1008,6 hPa 0,0 l/m 8,0 km/h N 7,6 C 10,2 C 20,9 km/h
08.04.2016 06:00 11,0 C 75 % 1008,6 hPa 0,0 l/m 9,8 km/h N 6,7 C 8,8 C 20,9 km/h
08.04.2016 07:00 10,9 C 74 % 1008,8 hPa 0,0 l/m 9,3 km/h N 6,5 C 9,0 C 21,7 km/h
08.04.2016 08:00 10,8 C 73 % 1008,6 hPa 0,0 l/m 11,6 km/h N 6,2 C 7,7 C 23,7 km/h
08.04.2016 09:00 10,8 C 72 % 1008,8 hPa 0,0 l/m 9,9 km/h N 5,9 C 8,6 C 22,1 km/h
08.04.2016 10:00 11,1 C 70 % 1008,5 hPa 0,0 l/m 9,3 km/h N 5,9 C 9,3 C 23,7 km/h
08.04.2016 11:00 11,5 C 68 % 1007,9 hPa 0,0 l/m 11,7 km/h N 5,8 C 8,4 C 29,8 km/h
08.04.2016 12:00 11,5 C 67 % 1008,4 hPa 0,0 l/m 8,0 km/h N 5,7 C 10,2 C 22,9 km/h
08.04.2016 13:00 9,8 C 79 % 1008,1 hPa 3,9 l/m 7,1 km/h N 6,2 C 8,9 C 16,9 km/h
08.04.2016 14:00 8,9 C 82 % 1007,1 hPa 1,6 l/m 11,0 km/h N 6,0 C 5,8 C 21,7 km/h
08.04.2016 15:00 8,8 C 82 % 1007,2 hPa 1,8 l/m 7,9 km/h N 5,9 C 7,6 C 18,5 km/h
08.04.2016 16:00 8,6 C 82 % 1006,6 hPa 0,8 l/m 11,4 km/h N 5,8 C 5,3 C 25,7 km/h
08.04.2016 17:00 8,4 C 82 % 1006,6 hPa 2,6 l/m 9,3 km/h N 5,5 C 6,3 C 19,7 km/h
08.04.2016 18:00 8,3 C 82 % 1006,3 hPa 1,3 l/m 10,2 km/h N 5,4 C 5,7 C 21,3 km/h
08.04.2016 19:00 8,4 C 82 % 1006,6 hPa 1,0 l/m 9,5 km/h N 5,5 C 6,2 C 23,7 km/h
08.04.2016 20:00 8,3 C 82 % 1006,6 hPa 0,8 l/m 9,0 km/h N 5,4 C 6,3 C 20,1 km/h
08.04.2016 21:00 8,2 C 82 % 1006,6 hPa 0,3 l/m 10,1 km/h N 5,3 C 5,6 C 22,1 km/h
08.04.2016 22:00 8,1 C 83 % 1006,3 hPa 0,3 l/m 10,8 km/h N 5,3 C 5,0 C 24,9 km/h
08.04.2016 23:00 7,9 C 83 % 1006,0 hPa 0,0 l/m 11,4 km/h N 5,2 C 4,4 C 25,3 km/h
09.04.2016 00:00 7,8 C 83 % 1006,0 hPa 0,0 l/m 10,3 km/h N 5,1 C 5,0 C 22,9 km/h
09.04.2016 01:00 7,8 C 83 % 1005,7 hPa 0,0 l/m 10,4 km/h N 5,1 C 4,9 C 25,7 km/h
09.04.2016 02:00 7,7 C 83 % 1005,4 hPa 0,0 l/m 9,5 km/h N 5,0 C 5,4 C 21,7 km/h
09.04.2016 03:00 7,5 C 83 % 1004,9 hPa 0,0 l/m 10,8 km/h N 4,8 C 4,3 C 23,7 km/h
09.04.2016 04:00 7,4 C 83 % 1004,8 hPa 0,0 l/m 9,1 km/h N 4,7 C 5,4 C 22,9 km/h
09.04.2016 05:00 7,3 C 83 % 1004,7 hPa 0,0 l/m 9,5 km/h N 4,6 C 5,0 C 21,3 km/h
09.04.2016 06:00 7,4 C 83 % 1004,8 hPa 0,0 l/m 9,0 km/h N 4,7 C 5,4 C 22,1 km/h
09.04.2016 07:00 7,4 C 83 % 1005,2 hPa 0,0 l/m 9,1 km/h N 4,7 C 5,3 C 21,3 km/h
09.04.2016 08:00 7,2 C 83 % 1005,4 hPa 0,3 l/m 7,8 km/h N 4,5 C 6,1 C 19,7 km/h
09.04.2016 09:00 7,3 C 83 % 1005,6 hPa 0,3 l/m 8,2 km/h N 4,5 C 5,8 C 20,1 km/h
09.04.2016 10:00 7,5 C 83 % 1005,8 hPa 0,3 l/m 7,9 km/h N 4,7 C 6,3 C 18,9 km/h
09.04.2016 11:00 7,6 C 83 % 1005,9 hPa 0,0 l/m 7,9 km/h N 4,9 C 6,5 C 20,9 km/h
09.04.2016 12:00 7,9 C 83 % 1005,8 hPa 0,0 l/m 7,2 km/h N 5,1 C 7,2 C 18,1 km/h
09.04.2016 13:00 8,1 C 82 % 1005,9 hPa 0,0 l/m 7,0 km/h N 5,2 C 7,5 C 17,3 km/h
09.04.2016 14:00 8,2 C 81 % 1005,8 hPa 0,0 l/m 7,6 km/h N 5,2 C 7,3 C 18,1 km/h
09.04.2016 15:00 8,4 C 80 % 1005,6 hPa 0,0 l/m 6,7 km/h N 5,1 C 8,0 C 17,7 km/h
09.04.2016 16:00 8,7 C 79 % 1005,5 hPa 0,0 l/m 7,9 km/h N 5,3 C 7,6 C 20,9 km/h
09.04.2016 17:00 8,8 C 79 % 1005,6 hPa 0,0 l/m 7,1 km/h N 5,3 C 8,3 C 18,1 km/h
09.04.2016 18:00 8,7 C 80 % 1005,8 hPa 0,0 l/m 5,2 km/h N 5,3 C 8,7 C 16,1 km/h
09.04.2016 19:00 8,5 C 79 % 1006,0 hPa 0,0 l/m 6,6 km/h N 5,1 C 8,2 C 17,3 km/h
09.04.2016 20:00 8,3 C 80 % 1006,9 hPa 0,0 l/m 6,1 km/h N 5,0 C 8,2 C 17,3 km/h
09.04.2016 21:00 8,1 C 80 % 1007,3 hPa 0,0 l/m 6,7 km/h N 4,8 C 7,9 C 17,3 km/h
09.04.2016 22:00 7,9 C 80 % 1007,2 hPa 0,0 l/m 6,4 km/h N 4,6 C 7,7 C 18,9 km/h
09.04.2016 23:00 7,8 C 79 % 1007,2 hPa 0,0 l/m 6,2 km/h N 4,4 C 7,7 C 16,9 km/h
10.04.2016 00:00 7,7 C 79 % 1007,4 hPa 0,0 l/m 7,6 km/h N 4,3 C 6,8 C 18,1 km/h
10.04.2016 01:00 7,8 C 79 % 1007,7 hPa 0,0 l/m 7,2 km/h N 4,4 C 7,1 C 17,7 km/h
10.04.2016 02:00 7,7 C 79 % 1007,7 hPa 0,0 l/m 7,3 km/h N 4,3 C 7,0 C 20,1 km/h
10.04.2016 03:00 7,6 C 79 % 1007,8 hPa 0,0 l/m 8,1 km/h N 4,2 C 6,3 C 19,3 km/h
10.04.2016 04:00 7,7 C 79 % 1008,1 hPa 0,0 l/m 10,1 km/h N 4,2 C 5,0 C 24,6 km/h
10.04.2016 05:00 7,8 C 78 % 1008,3 hPa 0,0 l/m 11,6 km/h N 4,2 C 4,2 C 27,0 km/h
10.04.2016 06:00 7,8 C 78 % 1008,9 hPa 0,0 l/m 9,4 km/h N 4,2 C 5,6 C 22,1 km/h
10.04.2016 07:00 7,8 C 78 % 1009,5 hPa 0,0 l/m 9,5 km/h N 4,3 C 5,6 C 22,5 km/h
10.04.2016 08:00 8,0 C 78 % 1010,0 hPa 0,0 l/m 10,4 km/h N 4,5 C 5,2 C 23,7 km/h
10.04.2016 09:00 8,9 C 76 % 1010,2 hPa 0,0 l/m 11,8 km/h N 5,0 C 5,6 C 25,3 km/h
10.04.2016 10:00 9,7 C 73 % 1010,7 hPa 0,0 l/m 12,6 km/h N 5,1 C 5,9 C 26,1 km/h
10.04.2016 11:00 10,5 C 70 % 1010,9 hPa 0,0 l/m 12,7 km/h N 5,2 C 6,9 C 28,6 km/h
10.04.2016 12:00 10,7 C 69 % 1011,1 hPa 0,0 l/m 12,5 km/h N 5,2 C 7,1 C 27,3 km/h
10.04.2016 13:00 11,0 C 67 % 1011,1 hPa 0,0 l/m 12,6 km/h N 5,1 C 7,4 C 28,6 km/h
10.04.2016 14:00 11,0 C 68 % 1011,2 hPa 0,0 l/m 8,7 km/h N 5,3 C 9,4 C 20,5 km/h
10.04.2016 15:00 11,3 C 66 % 1011,3 hPa 0,0 l/m 10,4 km/h N 5,1 C 8,9 C 23,3 km/h
10.04.2016 16:00 11,5 C 63 % 1011,4 hPa 0,0 l/m 9,5 km/h N 4,7 C 9,6 C 21,3 km/h
10.04.2016 17:00 11,6 C 64 % 1011,6 hPa 0,0 l/m 8,4 km/h N 5,0 C 10,2 C 21,7 km/h
10.04.2016 18:00 10,9 C 67 % 1012,1 hPa 0,0 l/m 8,5 km/h N 5,0 C 9,5 C 21,7 km/h
10.04.2016 19:00 9,9 C 70 % 1012,4 hPa 0,0 l/m 4,6 km/h N 4,5 C 9,9 C 12,5 km/h
10.04.2016 20:00 8,7 C 74 % 1012,9 hPa 0,0 l/m 2,0 km/h N 4,2 C 8,7 C 6,8 km/h
10.04.2016 21:00 7,8 C 77 % 1013,3 hPa 0,0 l/m 0,8 km/h N 4,0 C 7,8 C 6,4 km/h
10.04.2016 22:00 7,2 C 78 % 1013,3 hPa 0,0 l/m 0,9 km/h N 3,7 C 7,2 C 7,2 km/h
10.04.2016 23:00 6,8 C 79 % 1013,4 hPa 0,0 l/m 1,8 km/h N 3,4 C 6,8 C 8,9 km/h
Min-Datum _ 04.04.16 04.04.16 09.04.16 - 04.04.16 - 04.04.16 10.04.16 04.04.16
_ Min-Zeit 05:45 18:15 05:45 - 00:00 - 05:45 05:30 00:00
Minimum _ 5,9 C 41 % 1004,6 hPa - 0,0 km/h - 3,2 C 3,3 C 0,0 km/h
Max-Datum _ 05.04.16 04.04.16 10.04.16 08.04.16 06.04.16 - 05.04.16 05.04.16 06.04.16
_ Max-Zeit 16:15 04:15 23:45 13:30 12:30 - 15:15 16:00 05:45
Maximum _ 23,9 C 83 % 1013,5 hPa 3,9 l/m 17,2 km/h
N
- 12,0 C 23,8 C 38,6 km/h
N
Durchschnitt _ 12,3 C 71 % 1008,2 hPa #15,3 l/m 5,0 km/h N 7,0 C 11,4 C 13,1 km/h